Time;durP1;ratioP1;P1;durP2;ratioP2;P2;SDS_P1;SDS_P2;PMS_P1;PMS_P2;Temp;Humidity;BMP_temperature;BMP_pressure;BME280_temperature;BME280_humidity;BME280_pressure;Samples;Min_cycle;Max_cycle;Signal;HPM_P1;HPM_P2
2022/07/31 00:01:11;;;;;;;9.15;3.40;;;14.90;99.90;;;;;;5072567;28;20379;-84
2022/07/31 00:03:37;;;;;;;7.05;3.20;;;14.90;99.90;;;;;;5072694;28;20747;-83
2022/07/31 00:06:03;;;;;;;3.75;3.10;;;14.80;99.90;;;;;;5055205;28;20375;-84
2022/07/31 00:08:28;;;;;;;3.97;3.10;;;14.70;99.90;;;;;;5054969;28;20906;-84
2022/07/31 00:10:54;;;;;;;5.60;2.90;;;14.80;99.90;;;;;;5054622;28;20461;-84
2022/07/31 00:13:20;;;;;;;6.90;3.40;;;14.80;99.90;;;;;;5054486;28;20541;-84
2022/07/31 00:15:45;;;;;;;4.63;3.30;;;14.80;99.90;;;;;;5054795;28;20421;-83
2022/07/31 00:18:11;;;;;;;3.92;3.30;;;14.70;99.90;;;;;;5054574;28;20417;-84
2022/07/31 00:20:37;;;;;;;3.47;3.10;;;14.70;99.90;;;;;;5054660;28;20929;-84
2022/07/31 00:23:02;;;;;;;4.63;3.28;;;14.60;99.90;;;;;;5072124;28;20397;-84
2022/07/31 00:25:29;;;;;;;4.03;3.22;;;14.60;99.90;;;;;;5072483;28;20737;-84
2022/07/31 00:27:55;;;;;;;4.80;3.10;;;14.60;99.90;;;;;;5053986;28;20476;-83
2022/07/31 00:30:20;;;;;;;3.97;3.20;;;14.60;99.90;;;;;;5054756;28;20789;-83
2022/07/31 00:32:46;;;;;;;5.85;3.65;;;14.50;99.90;;;;;;5072156;28;20449;-83
2022/07/31 00:35:15;;;;;;;6.50;4.10;;;14.50;99.90;;;;;;5072145;28;20879;-84
2022/07/31 00:37:41;;;;;;;5.45;4.22;;;14.50;99.90;;;;;;5053759;28;20394;-83
2022/07/31 00:40:09;;;;;;;4.75;4.03;;;14.50;99.90;;;;;;5053853;28;20432;-83
2022/07/31 00:42:35;;;;;;;4.40;3.78;;;14.50;99.90;;;;;;5054078;28;20377;-82
2022/07/31 00:45:01;;;;;;;5.33;4.20;;;14.50;99.90;;;;;;5054099;28;20393;-83
2022/07/31 00:47:26;;;;;;;4.77;4.20;;;14.50;99.90;;;;;;5054031;28;20374;-83
2022/07/31 00:49:52;;;;;;;4.63;4.13;;;14.50;99.90;;;;;;5072131;28;20385;-85
2022/07/31 00:52:19;;;;;;;5.57;3.92;;;14.40;99.90;;;;;;5053863;28;20382;-84
2022/07/31 00:54:44;;;;;;;4.60;3.90;;;14.40;99.90;;;;;;5054069;28;20406;-85
2022/07/31 00:57:10;;;;;;;4.68;3.72;;;14.40;99.90;;;;;;5072134;28;20370;-85
2022/07/31 00:59:36;;;;;;;6.82;4.63;;;14.30;99.90;;;;;;5053698;28;20382;-83
2022/07/31 01:02:02;;;;;;;4.37;3.77;;;14.20;99.90;;;;;;5071840;28;20394;-83
2022/07/31 01:04:28;;;;;;;5.40;4.45;;;14.10;99.90;;;;;;5071363;28;20426;-83
2022/07/31 01:06:54;;;;;;;4.80;4.25;;;14.20;99.90;;;;;;5071953;28;20679;-83
2022/07/31 01:09:20;;;;;;;5.47;4.07;;;14.10;99.90;;;;;;5053471;28;20382;-83
2022/07/31 01:12:21;;;;;;;4.90;4.40;;;14.10;99.90;;;;;;5071734;28;20405;-84
2022/07/31 01:14:51;;;;;;;4.72;4.20;;;14.10;99.90;;;;;;5072333;28;20390;-83
2022/07/31 01:17:19;;;;;;;4.72;4.30;;;14.10;99.90;;;;;;5053941;28;20398;-83
2022/07/31 01:19:48;;;;;;;5.43;3.97;;;14.00;99.90;;;;;;5071918;28;20462;-83
2022/07/31 01:22:32;;;;;;;5.77;3.93;;;14.10;99.90;;;;;;5053308;28;20401;-83
2022/07/31 01:25:29;;;;;;;4.85;4.22;;;14.10;99.90;;;;;;5053984;28;20580;-83
2022/07/31 01:28:03;;;;;;;4.70;4.18;;;14.00;99.90;;;;;;5053462;28;20402;-83
2022/07/31 01:30:55;;;;;;;11.68;4.68;;;14.00;99.90;;;;;;5053774;28;20467;-83
2022/07/31 01:33:27;;;;;;;12.23;4.82;;;13.90;99.90;;;;;;5053315;28;20401;-83
2022/07/31 01:36:09;;;;;;;7.03;4.05;;;13.90;99.90;;;;;;5053539;28;20374;-83
2022/07/31 01:38:41;;;;;;;8.52;4.60;;;13.90;99.90;;;;;;5049699;28;20400;-83
2022/07/31 01:41:11;;;;;;;10.27;4.70;;;13.90;99.90;;;;;;5076114;28;20381;-82
2022/07/31 01:43:40;;;;;;;5.80;4.55;;;13.80;99.90;;;;;;5075653;28;20378;-82
2022/07/31 01:46:10;;;;;;;4.57;4.13;;;13.70;99.90;;;;;;5075512;28;20791;-82
2022/07/31 01:48:37;;;;;;;4.68;4.25;;;13.70;99.90;;;;;;5075406;28;20476;-83
2022/07/31 01:51:05;;;;;;;4.63;4.15;;;13.70;99.90;;;;;;5075466;28;20374;-83
2022/07/31 01:53:31;;;;;;;7.47;5.25;;;13.70;99.90;;;;;;5057184;28;20424;-83
2022/07/31 01:55:58;;;;;;;5.72;5.18;;;13.70;99.90;;;;;;5075403;28;20392;-83
2022/07/31 01:58:26;;;;;;;5.35;4.70;;;13.60;99.90;;;;;;5057457;28;20377;-83
2022/07/31 02:00:57;;;;;;;5.53;5.03;;;13.60;99.90;;;;;;5056964;28;20875;-83
2022/07/31 02:03:24;;;;;;;7.72;5.13;;;13.60;99.90;;;;;;5057648;28;20515;-83
2022/07/31 02:05:51;;;;;;;5.80;5.13;;;13.60;99.90;;;;;;5075057;28;20386;-84
2022/07/31 02:08:18;;;;;;;6.13;5.03;;;13.50;99.90;;;;;;5074893;28;20515;-84
2022/07/31 02:10:45;;;;;;;6.03;5.20;;;13.60;99.90;;;;;;5075508;28;20859;-82
2022/07/31 02:13:12;;;;;;;10.00;5.60;;;13.50;99.90;;;;;;5075174;28;20378;-82
2022/07/31 02:15:43;;;;;;;5.57;4.97;;;13.50;99.90;;;;;;5074536;28;20427;-83
2022/07/31 02:18:09;;;;;;;7.40;5.13;;;13.50;99.90;;;;;;5074852;28;20864;-83
2022/07/31 02:20:37;;;;;;;7.38;4.93;;;13.50;99.90;;;;;;5057126;28;20408;-83
2022/07/31 02:23:03;;;;;;;6.97;5.28;;;13.60;99.90;;;;;;5056985;28;20390;-80
2022/07/31 02:25:30;;;;;;;5.57;5.07;;;13.60;99.90;;;;;;5075259;28;20958;-80
2022/07/31 02:27:59;;;;;;;6.47;5.10;;;13.50;99.90;;;;;;5075637;28;20424;-82
2022/07/31 02:30:29;;;;;;;6.82;5.10;;;13.40;99.90;;;;;;5074830;28;20386;-82
2022/07/31 02:32:56;;;;;;;6.78;5.28;;;13.40;99.90;;;;;;5074074;28;20409;-82
2022/07/31 02:35:22;;;;;;;7.32;5.47;;;13.40;99.90;;;;;;5056713;28;20888;-82
2022/07/31 02:37:50;;;;;;;5.43;4.93;;;13.30;99.90;;;;;;5057150;28;20410;-83
2022/07/31 02:40:18;;;;;;;6.10;5.35;;;13.30;99.90;;;;;;5075020;28;20716;-82
2022/07/31 02:42:45;;;;;;;5.63;5.13;;;13.20;99.90;;;;;;5074484;28;20879;-83
2022/07/31 02:45:12;;;;;;;10.20;5.70;;;13.20;99.90;;;;;;5075076;28;20393;-84
2022/07/31 02:47:38;;;;;;;6.57;5.30;;;13.20;99.90;;;;;;5056709;28;20386;-83
2022/07/31 02:50:05;;;;;;;5.83;5.23;;;13.20;99.90;;;;;;5074009;28;20370;-82
2022/07/31 02:52:32;;;;;;;6.20;5.25;;;13.20;99.90;;;;;;5056313;28;20789;-82
2022/07/31 02:54:59;;;;;;;5.75;5.20;;;13.20;99.90;;;;;;5074373;28;20913;-83
2022/07/31 02:57:25;;;;;;;7.05;5.47;;;13.20;99.90;;;;;;5054484;28;20410;-83
2022/07/31 02:59:50;;;;;;;5.97;5.38;;;13.20;99.90;;;;;;5042869;28;20946;-83
2022/07/31 03:02:16;;;;;;;5.15;4.65;;;13.20;99.90;;;;;;5056439;28;20390;-82
2022/07/31 03:04:42;;;;;;;6.17;5.57;;;13.10;99.90;;;;;;5055665;28;20378;-82
2022/07/31 03:07:08;;;;;;;6.07;5.43;;;13.10;99.90;;;;;;5074266;28;20910;-82
2022/07/31 03:09:35;;;;;;;8.17;5.70;;;13.00;99.90;;;;;;5057728;28;20396;-84
2022/07/31 03:12:02;;;;;;;6.50;5.40;;;13.00;99.90;;;;;;5076084;28;20712;-84
2022/07/31 03:14:29;;;;;;;5.63;5.13;;;13.00;99.90;;;;;;5070000;28;20463;-83
2022/07/31 03:16:57;;;;;;;5.78;5.20;;;13.00;99.90;;;;;;5055722;28;20631;-83
2022/07/31 03:19:24;;;;;;;6.57;5.30;;;13.00;99.90;;;;;;5073166;28;20424;-81
2022/07/31 03:21:50;;;;;;;5.72;5.18;;;13.00;99.90;;;;;;5074121;28;20461;-84
2022/07/31 03:24:16;;;;;;;5.93;5.07;;;13.00;99.90;;;;;;5055454;28;20398;-84
2022/07/31 03:26:42;;;;;;;5.97;5.40;;;13.00;99.90;;;;;;5074014;28;20375;-83
2022/07/31 03:29:08;;;;;;;5.78;5.25;;;13.00;99.90;;;;;;5073682;28;20445;-83
2022/07/31 03:31:34;;;;;;;5.53;5.03;;;12.90;99.90;;;;;;5073793;28;20850;-84
2022/07/31 03:34:00;;;;;;;6.00;5.40;;;12.90;99.90;;;;;;5055763;28;20402;-83
2022/07/31 03:36:26;;;;;;;6.35;5.75;;;12.80;99.90;;;;;;5073241;28;20389;-83
2022/07/31 03:38:53;;;;;;;6.40;5.38;;;12.90;99.90;;;;;;5073793;28;20500;-82
2022/07/31 03:41:19;;;;;;;5.78;5.13;;;12.90;99.90;;;;;;5072832;28;20386;-82
2022/07/31 03:43:46;;;;;;;6.28;5.43;;;12.90;99.90;;;;;;5055281;28;20488;-83
2022/07/31 03:46:14;;;;;;;6.57;5.40;;;12.90;99.90;;;;;;5073229;28;20386;-82
2022/07/31 03:48:40;;;;;;;5.70;5.10;;;12.90;99.90;;;;;;5073312;28;20397;-83
2022/07/31 03:51:06;;;;;;;6.00;5.13;;;13.00;99.90;;;;;;5056178;28;20875;-82
2022/07/31 03:53:32;;;;;;;6.72;5.43;;;13.00;99.90;;;;;;5054882;28;20469;-83
2022/07/31 03:55:59;;;;;;;6.43;5.47;;;12.90;99.90;;;;;;5073180;28;20469;-83
2022/07/31 03:58:25;;;;;;;5.70;5.20;;;13.00;99.90;;;;;;5055175;28;20379;-82
2022/07/31 04:00:51;;;;;;;5.85;5.28;;;13.00;99.90;;;;;;5054686;28;20390;-82
2022/07/31 04:03:17;;;;;;;6.03;5.53;;;13.00;99.90;;;;;;5054970;28;20902;-84
2022/07/31 04:05:43;;;;;;;5.47;4.97;;;13.10;99.90;;;;;;5053285;28;20463;-82
2022/07/31 04:08:09;;;;;;;6.10;5.50;;;13.00;99.90;;;;;;5035104;28;20412;-83
2022/07/31 04:10:36;;;;;;;6.32;5.18;;;13.00;99.90;;;;;;5034562;28;20387;-82
2022/07/31 04:13:04;;;;;;;7.28;5.38;;;13.00;99.90;;;;;;5053641;28;20487;-83
2022/07/31 04:15:30;;;;;;;5.60;5.10;;;13.10;99.90;;;;;;5054592;28;20902;-83
2022/07/31 04:17:56;;;;;;;6.40;5.80;;;13.10;99.90;;;;;;5072933;28;20374;-82
2022/07/31 04:20:22;;;;;;;6.37;5.13;;;13.20;99.90;;;;;;5072965;28;20757;-83
2022/07/31 04:22:48;;;;;;;6.30;5.35;;;13.30;99.90;;;;;;5054632;28;20374;-84
2022/07/31 04:25:14;;;;;;;6.18;5.47;;;13.40;99.90;;;;;;5072224;28;20752;-83
2022/07/31 04:27:40;;;;;;;6.27;5.30;;;13.50;99.90;;;;;;5054489;28;20461;-82
2022/07/31 04:30:07;;;;;;;6.07;5.47;;;13.40;99.90;;;;;;5072706;28;20462;-83
2022/07/31 04:32:34;;;;;;;6.13;5.25;;;13.50;99.90;;;;;;5072367;28;20461;-83
2022/07/31 04:35:01;;;;;;;6.18;5.50;;;13.60;99.90;;;;;;5034926;28;20784;-83
2022/07/31 04:37:27;;;;;;;5.57;5.07;;;13.70;99.90;;;;;;5034689;28;20403;-82
2022/07/31 04:39:53;;;;;;;6.28;5.07;;;13.80;99.90;;;;;;5052317;28;20870;-83
2022/07/31 04:42:18;;;;;;;5.68;5.07;;;14.00;99.90;;;;;;5034912;28;20431;-83
2022/07/31 04:44:44;;;;;;;5.60;5.10;;;14.20;99.90;;;;;;5054707;28;20436;-83
2022/07/31 04:47:10;;;;;;;6.85;5.10;;;14.30;99.90;;;;;;5072485;28;20378;-83
2022/07/31 04:49:36;;;;;;;6.47;5.35;;;14.50;99.90;;;;;;5072203;28;20382;-83
2022/07/31 04:52:01;;;;;;;7.37;5.37;;;14.70;99.90;;;;;;5054689;28;20386;-83
2022/07/31 04:54:28;;;;;;;7.47;4.90;;;15.00;99.90;;;;;;5054025;28;20421;-83
2022/07/31 04:56:54;;;;;;;5.50;4.88;;;15.30;99.90;;;;;;5072401;28;20905;-83
2022/07/31 04:59:21;;;;;;;5.55;5.03;;;15.70;99.90;;;;;;5054195;28;20386;-84
2022/07/31 05:01:47;;;;;;;6.33;5.63;;;15.80;99.90;;;;;;5054347;28;20398;-84
2022/07/31 05:04:13;;;;;;;6.18;5.57;;;16.00;99.90;;;;;;5054093;28;20895;-84
2022/07/31 05:06:41;;;;;;;6.07;5.13;;;16.20;99.90;;;;;;5054244;28;20382;-84
2022/07/31 05:09:11;;;;;;;5.82;5.32;;;16.30;99.90;;;;;;5054597;28;20374;-84
2022/07/31 05:11:38;;;;;;;6.60;5.90;;;16.50;99.90;;;;;;5054285;28;20390;-82
2022/07/31 05:14:06;;;;;;;8.02;6.50;;;16.70;99.90;;;;;;5052718;28;20395;-82
2022/07/31 05:16:33;;;;;;;8.07;7.28;;;16.90;99.90;;;;;;5072279;28;20374;-84
2022/07/31 05:18:59;;;;;;;7.78;6.97;;;17.00;99.90;;;;;;5071382;28;20443;-83
2022/07/31 05:21:31;;;;;;;8.73;7.57;;;17.20;99.90;;;;;;5053988;28;20783;-83
2022/07/31 05:23:58;;;;;;;7.78;7.07;;;17.30;99.90;;;;;;5053555;28;20456;-83
2022/07/31 05:26:24;;;;;;;8.07;7.28;;;17.40;99.90;;;;;;5072167;28;20386;-83
2022/07/31 05:28:52;;;;;;;9.15;7.15;;;17.60;99.90;;;;;;5053240;28;20394;-84
2022/07/31 05:31:19;;;;;;;7.80;7.00;;;17.70;99.90;;;;;;5072055;28;20408;-83
2022/07/31 05:33:47;;;;;;;10.95;7.88;;;17.80;99.90;;;;;;5071357;28;20409;-83
2022/07/31 05:36:14;;;;;;;8.18;7.38;;;18.00;99.90;;;;;;5053906;28;21023;-84
2022/07/31 05:38:40;;;;;;;8.05;7.13;;;18.10;99.90;;;;;;5053972;28;20464;-83
2022/07/31 05:41:06;;;;;;;7.80;7.07;;;18.10;99.90;;;;;;5071880;28;20382;-82
2022/07/31 05:43:32;;;;;;;8.07;7.28;;;18.20;99.90;;;;;;5053334;28;20943;-85
2022/07/31 05:45:57;;;;;;;7.13;6.43;;;18.40;99.90;;;;;;5071564;28;20467;-84
2022/07/31 05:48:24;;;;;;;7.60;6.90;;;18.50;99.90;;;;;;5053783;28;20441;-84
2022/07/31 05:50:50;;;;;;;7.28;6.57;;;18.70;99.90;;;;;;5054033;28;20476;-84
2022/07/31 05:53:19;;;;;;;8.80;6.97;;;18.80;99.90;;;;;;5071351;28;20459;-84
2022/07/31 05:55:46;;;;;;;7.40;6.70;;;19.00;99.90;;;;;;5071659;28;20390;-84
2022/07/31 05:58:14;;;;;;;8.45;7.63;;;19.10;99.90;;;;;;5071565;28;20436;-84
2022/07/31 06:00:40;;;;;;;7.35;6.65;;;19.10;99.90;;;;;;5071596;28;20973;-84
2022/07/31 06:03:06;;;;;;;7.60;6.47;;;19.20;99.90;;;;;;5053522;28;20401;-85
2022/07/31 06:05:32;;;;;;;6.90;6.20;;;19.20;99.90;;;;;;5053532;28;20402;-83
2022/07/31 06:07:59;;;;;;;8.13;7.07;;;19.30;99.90;;;;;;5071414;28;20879;-85
2022/07/31 06:10:26;;;;;;;7.00;6.32;;;19.40;99.90;;;;;;5071641;28;20465;-84
2022/07/31 06:12:52;;;;;;;6.88;6.18;;;19.60;99.90;;;;;;5070679;28;20389;-82
2022/07/31 06:15:17;;;;;;;6.60;5.97;;;19.70;99.90;;;;;;5071501;28;20383;-85
2022/07/31 06:17:44;;;;;;;6.23;5.63;;;19.90;99.90;;;;;;5053430;28;20376;-85
2022/07/31 06:20:10;;;;;;;6.00;5.40;;;19.90;99.90;;;;;;5071470;28;20370;-84
2022/07/31 06:22:38;;;;;;;6.50;5.90;;;19.90;99.90;;;;;;5053061;28;20390;-84
2022/07/31 06:25:04;;;;;;;8.57;5.90;;;19.80;99.90;;;;;;5054636;28;20385;-84
2022/07/31 06:27:30;;;;;;;6.68;5.97;;;19.80;99.90;;;;;;5075448;28;20477;-84
2022/07/31 06:29:56;;;;;;;6.65;5.90;;;19.90;99.90;;;;;;5058758;28;20386;-84
2022/07/31 06:32:22;;;;;;;6.32;5.65;;;20.10;99.90;;;;;;5056929;28;20477;-85
2022/07/31 06:34:48;;;;;;;9.55;5.93;;;20.20;99.90;;;;;;5073627;28;20556;-84
2022/07/31 06:37:13;;;;;;;7.93;5.63;;;20.40;99.90;;;;;;5060763;28;20392;-85
2022/07/31 06:39:39;;;;;;;8.45;5.65;;;20.70;99.90;;;;;;5088794;28;20456;-84
2022/07/31 06:42:05;;;;;;;6.53;5.53;;;21.10;99.90;;;;;;5073840;28;20406;-84
2022/07/31 06:44:32;;;;;;;6.13;5.03;;;21.60;99.90;;;;;;5079036;28;20361;-84
2022/07/31 06:46:58;;;;;;;7.65;5.10;;;22.00;99.90;;;;;;5073120;28;20812;-84
2022/07/31 06:49:24;;;;;;;5.80;5.25;;;22.40;99.90;;;;;;5076000;28;20868;-85
2022/07/31 06:51:50;;;;;;;5.03;4.53;;;22.70;99.90;;;;;;5071633;28;20491;-84
2022/07/31 06:54:16;;;;;;;6.30;4.95;;;23.10;99.90;;;;;;5081675;28;20516;-85
2022/07/31 06:56:42;;;;;;;6.05;4.75;;;23.50;99.90;;;;;;5073282;28;20400;-84
2022/07/31 06:59:11;;;;;;;6.13;4.50;;;23.70;99.90;;;;;;5057652;28;20382;-84
2022/07/31 07:01:36;;;;;;;5.10;4.50;;;23.80;99.90;;;;;;5079836;28;20437;-85
2022/07/31 07:04:02;;;;;;;6.43;4.60;;;24.00;99.90;;;;;;5067380;28;20366;-85
2022/07/31 07:06:28;;;;;;;6.05;4.60;;;24.10;99.90;;;;;;5056039;28;20760;-85
2022/07/31 07:08:54;;;;;;;4.63;3.97;;;24.20;99.90;;;;;;5055846;28;20488;-85
2022/07/31 07:11:20;;;;;;;5.78;4.60;;;24.20;99.90;;;;;;5073923;28;20455;-85
2022/07/31 07:13:45;;;;;;;5.63;4.60;;;24.40;99.90;;;;;;5073776;28;20402;-84
2022/07/31 07:16:12;;;;;;;4.38;3.97;;;24.50;99.90;;;;;;5073035;28;20378;-84
2022/07/31 07:18:37;;;;;;;4.85;4.28;;;24.60;99.90;;;;;;5056072;28;20513;-86
2022/07/31 07:21:03;;;;;;;5.67;4.60;;;24.60;99.90;;;;;;5074272;28;20756;-84
2022/07/31 07:23:29;;;;;;;7.35;4.88;;;24.70;99.90;;;;;;5056225;28;20771;-85
2022/07/31 07:25:55;;;;;;;4.43;4.00;;;24.80;99.90;;;;;;5073745;28;20404;-86
2022/07/31 07:28:24;;;;;;;6.25;4.10;;;24.90;99.90;;;;;;5056416;28;20554;-83
2022/07/31 07:30:49;;;;;;;4.53;3.95;;;25.00;99.90;;;;;;5056391;28;20379;-84
2022/07/31 07:33:15;;;;;;;5.72;3.60;;;25.10;99.90;;;;;;5073983;28;20448;-85
2022/07/31 07:35:41;;;;;;;5.50;3.30;;;25.20;99.90;;;;;;5073327;28;20409;-85
2022/07/31 07:38:07;;;;;;;3.78;3.03;;;25.50;99.90;;;;;;5055631;28;20743;-83
2022/07/31 07:40:32;;;;;;;3.53;2.90;;;25.50;99.90;;;;;;5055698;28;20386;-83
2022/07/31 07:42:58;;;;;;;4.50;3.22;;;25.80;99.90;;;;;;5075285;28;20386;-84
2022/07/31 07:45:24;;;;;;;4.00;3.10;;;26.10;99.90;;;;;;5056716;28;20378;-84
2022/07/31 07:47:53;;;;;;;7.80;3.10;;;26.10;99.90;;;;;;5056106;28;20390;-85
2022/07/31 07:50:18;;;;;;;5.53;2.80;;;26.00;99.90;;;;;;5074290;28;20385;-83
2022/07/31 07:52:44;;;;;;;3.00;2.67;;;26.00;99.90;;;;;;5056218;28;20378;-84
2022/07/31 07:55:11;;;;;;;3.03;2.63;;;26.00;99.90;;;;;;5055718;28;20398;-85
2022/07/31 07:57:38;;;;;;;4.75;3.08;;;26.20;99.90;;;;;;5055357;28;20398;-86
2022/07/31 08:00:12;;;;;;;5.10;3.28;;;26.10;99.90;;;;;;5055734;28;20977;-84
2022/07/31 08:02:38;;;;;;;4.72;3.15;;;25.90;99.90;;;;;;5055613;28;20481;-85
2022/07/31 08:05:05;;;;;;;4.20;3.13;;;25.90;99.90;;;;;;5073630;28;20528;-85
2022/07/31 08:07:34;;;;;;;5.20;2.92;;;25.70;99.90;;;;;;5057230;28;20424;-84
2022/07/31 08:10:00;;;;;;;3.35;2.90;;;25.50;99.90;;;;;;5055908;28;20385;-86
2022/07/31 08:12:27;;;;;;;4.78;3.10;;;25.40;99.90;;;;;;5055998;28;20501;-85
2022/07/31 08:14:52;;;;;;;5.07;3.07;;;25.40;99.90;;;;;;5055361;28;20903;-85
2022/07/31 08:17:19;;;;;;;7.38;3.00;;;25.50;99.90;;;;;;5055535;28;20378;-86
2022/07/31 08:19:45;;;;;;;4.15;3.17;;;25.70;99.90;;;;;;5073968;28;20445;-86
2022/07/31 08:22:11;;;;;;;4.40;3.17;;;25.90;99.90;;;;;;5055781;28;20414;-84
2022/07/31 08:24:37;;;;;;;5.10;3.28;;;26.10;99.90;;;;;;5054662;28;20386;-84
2022/07/31 08:29:46;;;;;;;3.83;2.80;;;26.30;99.90;;;;;;5073023;28;20484;-84
2022/07/31 08:32:13;;;;;;;5.63;2.90;;;26.40;99.90;;;;;;5054601;28;20807;-85
2022/07/31 08:34:39;;;;;;;6.47;3.28;;;26.70;99.60;;;;;;5072657;28;20397;-84
2022/07/31 08:37:05;;;;;;;3.92;3.10;;;26.80;98.70;;;;;;5073254;28;20405;-83
2022/07/31 08:39:32;;;;;;;5.25;3.13;;;26.90;99.90;;;;;;5054839;28;20474;-86
2022/07/31 08:41:58;;;;;;;7.15;3.20;;;27.10;99.90;;;;;;5055083;28;20876;-83
2022/07/31 08:44:24;;;;;;;4.07;2.90;;;27.30;99.10;;;;;;5073395;28;20421;-83
2022/07/31 08:46:56;;;;;;;3.83;2.90;;;27.40;99.40;;;;;;5072665;28;20370;-84
2022/07/31 08:49:24;;;;;;;6.30;3.17;;;27.30;99.30;;;;;;5072250;28;20465;-85
2022/07/31 08:51:52;;;;;;;8.57;3.20;;;27.20;99.60;;;;;;5072521;28;20867;-85
2022/07/31 08:54:19;;;;;;;5.75;3.03;;;27.30;99.60;;;;;;5054899;28;20398;-85
2022/07/31 08:56:51;;;;;;;3.67;3.00;;;27.40;99.00;;;;;;5054210;28;20417;-84
2022/07/31 08:59:17;;;;;;;3.67;2.90;;;27.40;98.60;;;;;;5054433;28;20386;-85
2022/07/31 09:01:43;;;;;;;4.40;3.10;;;27.50;98.50;;;;;;5054645;28;20390;-85
2022/07/31 09:04:09;;;;;;;4.90;3.20;;;27.60;98.20;;;;;;5072234;28;20728;-85
2022/07/31 09:06:36;;;;;;;4.78;3.17;;;27.50;97.50;;;;;;5054171;28;20465;-85
2022/07/31 09:09:02;;;;;;;5.65;3.13;;;27.50;98.20;;;;;;5054817;28;20410;-86
2022/07/31 09:11:28;;;;;;;4.40;2.57;;;27.60;99.00;;;;;;5054786;28;20404;-85
2022/07/31 09:13:59;;;;;;;4.47;2.75;;;27.80;98.10;;;;;;5056196;28;20402;-85
2022/07/31 09:16:28;;;;;;;3.78;3.20;;;27.80;97.50;;;;;;5073985;28;20374;-84
2022/07/31 09:18:58;;;;;;;4.20;3.08;;;27.70;97.50;;;;;;5073667;28;20414;-87
2022/07/31 09:21:25;;;;;;;7.35;3.65;;;27.50;97.90;;;;;;5054237;28;20383;-84
2022/07/31 09:23:51;;;;;;;5.78;3.22;;;27.50;98.40;;;;;;5054958;28;20887;-87
2022/07/31 09:26:17;;;;;;;4.18;3.10;;;27.50;98.10;;;;;;5072704;28;20698;-86
2022/07/31 09:28:45;;;;;;;5.07;3.40;;;27.70;98.10;;;;;;5072112;28;20401;-86
2022/07/31 09:31:12;;;;;;;5.38;3.00;;;27.70;98.00;;;;;;5055046;28;20455;-86
2022/07/31 09:33:42;;;;;;;6.55;3.28;;;27.80;97.80;;;;;;5055487;28;20402;-87
2022/07/31 09:36:08;;;;;;;5.43;3.20;;;27.70;97.20;;;;;;5055453;28;20460;-86
2022/07/31 09:38:37;;;;;;;5.65;2.92;;;27.70;97.90;;;;;;5055900;28;20468;-86
2022/07/31 09:41:13;;;;;;;6.38;3.22;;;27.80;98.30;;;;;;5055470;28;20539;-86
2022/07/31 09:43:39;;;;;;;7.20;3.30;;;28.00;97.90;;;;;;5053855;28;20402;-84
2022/07/31 09:46:06;;;;;;;4.00;2.80;;;28.00;97.10;;;;;;5074318;28;20456;-88
2022/07/31 09:48:33;;;;;;;5.22;3.53;;;28.10;96.30;;;;;;5055028;28;20389;-84
2022/07/31 09:51:01;;;;;;;5.53;3.25;;;28.00;96.20;;;;;;5054669;28;20725;-86
2022/07/31 09:53:50;;;;;;;5.75;3.45;;;27.90;96.10;;;;;;5055151;28;20456;-86
2022/07/31 09:56:36;;;;;;;6.20;3.25;;;27.80;96.30;;;;;;5056785;28;20378;-84
2022/07/31 09:59:02;;;;;;;4.63;3.10;;;27.80;96.20;;;;;;5073295;28;20375;-83
2022/07/31 10:01:29;;;;;;;5.27;3.27;;;27.90;95.10;;;;;;5059355;28;20451;-85
2022/07/31 10:03:59;;;;;;;6.53;3.27;;;28.00;96.60;;;;;;5077435;28;20371;-87
2022/07/31 10:06:30;;;;;;;5.13;3.07;;;28.00;95.30;;;;;;5077400;28;20437;-86
2022/07/31 10:08:56;;;;;;;5.38;3.65;;;28.10;94.90;;;;;;5059857;28;20401;-85
2022/07/31 10:11:26;;;;;;;4.97;3.30;;;27.90;95.40;;;;;;5080578;28;20374;-84
2022/07/31 10:13:58;;;;;;;4.40;3.23;;;28.00;95.30;;;;;;5067356;28;20418;-83
2022/07/31 10:16:27;;;;;;;6.03;2.97;;;28.10;95.20;;;;;;5080188;28;20409;-85
2022/07/31 10:18:58;;;;;;;4.53;3.00;;;28.30;95.40;;;;;;5060824;28;20374;-86
2022/07/31 10:21:31;;;;;;;4.72;2.88;;;28.40;94.10;;;;;;5057085;28;20864;-84
2022/07/31 10:23:58;;;;;;;4.97;2.97;;;28.50;93.80;;;;;;5094197;28;20458;-85
2022/07/31 10:26:30;;;;;;;3.30;2.60;;;28.60;94.00;;;;;;5057565;28;20393;-86
2022/07/31 10:28:57;;;;;;;6.50;3.15;;;28.80;93.60;;;;;;5058466;28;20394;-86
2022/07/31 10:31:23;;;;;;;6.20;2.80;;;29.10;94.10;;;;;;5058349;28;20388;-86
2022/07/31 10:33:49;;;;;;;4.47;2.92;;;29.20;94.30;;;;;;5076744;28;20754;-88
2022/07/31 10:36:22;;;;;;;4.37;2.83;;;29.10;92.20;;;;;;5059356;28;20386;-82
2022/07/31 10:39:02;;;;;;;4.93;2.83;;;28.80;91.60;;;;;;5059097;28;20393;-85
2022/07/31 10:41:58;;;;;;;4.30;2.97;;;28.30;92.20;;;;;;5058114;28;20416;-86
2022/07/31 10:44:34;;;;;;;4.97;3.20;;;28.30;93.20;;;;;;5075584;28;20394;-86
2022/07/31 10:47:14;;;;;;;7.43;3.40;;;28.40;92.50;;;;;;5059250;28;20386;-85
2022/07/31 10:49:45;;;;;;;3.97;2.90;;;28.20;93.20;;;;;;5058900;28;20381;-84
2022/07/31 10:52:11;;;;;;;4.72;2.83;;;28.40;93.60;;;;;;5076946;28;20386;-85
2022/07/31 10:54:45;;;;;;;6.13;3.17;;;28.30;92.50;;;;;;5058390;28;20433;-86
2022/07/31 10:57:25;;;;;;;5.13;2.80;;;28.00;93.10;;;;;;5075515;28;20370;-87
2022/07/31 10:59:51;;;;;;;4.78;2.60;;;27.90;92.90;;;;;;5074889;28;20405;-86
2022/07/31 11:02:30;;;;;;;5.13;2.47;;;28.30;93.10;;;;;;5057702;28;20394;-86
2022/07/31 11:05:28;;;;;;;4.38;2.90;;;28.40;92.00;;;;;;5038761;28;20380;-89
2022/07/31 11:08:02;;;;;;;5.43;2.65;;;28.50;93.80;;;;;;5035144;28;20394;-87
2022/07/31 11:10:29;;;;;;;4.55;2.60;;;28.80;93.20;;;;;;5058292;28;20437;-86
2022/07/31 11:13:06;;;;;;;5.15;2.92;;;28.90;93.30;;;;;;5057283;28;20897;-87
2022/07/31 11:15:33;;;;;;;4.70;2.80;;;28.40;92.60;;;;;;5054803;28;20431;-84
2022/07/31 11:18:17;;;;;;;4.90;2.70;;;28.20;93.70;;;;;;5046496;28;20382;-86
2022/07/31 11:20:59;;;;;;;4.13;2.80;;;28.00;93.90;;;;;;5074775;28;20504;-85
2022/07/31 11:23:29;;;;;;;4.68;2.80;;;27.80;94.60;;;;;;5074389;28;20413;-87
2022/07/31 11:25:59;;;;;;;4.07;2.70;;;27.60;94.40;;;;;;5059408;28;20444;-87
2022/07/31 11:28:25;;;;;;;3.95;2.50;;;27.60;94.00;;;;;;5075652;28;20428;-87
2022/07/31 11:31:03;;;;;;;6.35;2.75;;;27.60;94.90;;;;;;5058787;28;20382;-88
2022/07/31 11:33:43;;;;;;;3.50;2.60;;;27.50;94.10;;;;;;5056318;28;20476;-83
2022/07/31 11:36:16;;;;;;;5.25;2.67;;;27.50;94.20;;;;;;5057443;28;20460;-87
2022/07/31 11:38:51;;;;;;;3.30;2.55;;;27.50;94.10;;;;;;5078049;28;20373;-86
2022/07/31 11:41:18;;;;;;;4.10;2.77;;;27.40;93.70;;;;;;5056131;28;20456;-85
2022/07/31 11:43:45;;;;;;;29.55;5.93;;;27.30;93.50;;;;;;5073280;28;20768;-86
2022/07/31 11:46:12;;;;;;;6.22;2.70;;;27.20;93.80;;;;;;5055600;28;20374;-88
2022/07/31 11:48:38;;;;;;;5.28;2.63;;;27.30;92.90;;;;;;5054464;28;20383;-85
2022/07/31 11:51:04;;;;;;;5.23;2.50;;;27.30;93.30;;;;;;5053647;28;20384;-87
2022/07/31 11:53:40;;;;;;;4.25;2.50;;;27.40;93.10;;;;;;5073426;28;20480;-87
2022/07/31 11:56:07;;;;;;;4.30;2.30;;;27.80;93.70;;;;;;5056118;28;20937;-86
2022/07/31 11:58:33;;;;;;;4.15;2.40;;;28.20;93.00;;;;;;5041371;28;20738;-88
2022/07/31 12:01:01;;;;;;;4.28;2.13;;;28.30;92.00;;;;;;5050302;28;20390;-86
2022/07/31 12:03:37;;;;;;;3.20;2.05;;;28.50;92.70;;;;;;5055128;28;20755;-84
2022/07/31 12:06:04;;;;;;;4.85;2.47;;;28.70;91.50;;;;;;5056494;28;20398;-87
2022/07/31 12:08:30;;;;;;;2.92;2.22;;;28.90;91.80;;;;;;5072650;28;20389;-87
2022/07/31 12:10:59;;;;;;;3.30;2.30;;;29.20;91.80;;;;;;5054057;28;20900;-87
2022/07/31 12:13:25;;;;;;;4.33;2.30;;;29.20;90.90;;;;;;5055476;28;20389;-87
2022/07/31 12:16:06;;;;;;;4.15;2.28;;;29.40;90.60;;;;;;5055886;28;20459;-88
2022/07/31 12:18:50;;;;;;;3.05;2.22;;;29.30;90.90;;;;;;5055242;28;20666;-86
2022/07/31 12:21:17;;;;;;;6.18;2.38;;;28.90;90.20;;;;;;5054724;28;20906;-89
2022/07/31 12:23:50;;;;;;;4.40;2.33;;;28.60;90.40;;;;;;5055305;28;20391;-88
2022/07/31 12:26:28;;;;;;;4.15;2.30;;;28.60;89.90;;;;;;5072923;28;20473;-87
2022/07/31 12:29:01;;;;;;;3.30;2.20;;;28.50;90.10;;;;;;5055896;28;20747;-85
2022/07/31 12:31:28;;;;;;;3.85;2.40;;;28.50;89.80;;;;;;5074364;28;20413;-86
2022/07/31 12:33:53;;;;;;;5.03;2.42;;;28.50;90.40;;;;;;5055449;28;20394;-86
2022/07/31 12:36:20;;;;;;;4.53;2.03;;;28.60;90.40;;;;;;5054495;28;20480;-90
2022/07/31 12:38:56;;;;;;;4.40;2.00;;;28.50;89.00;;;;;;5055634;28;20377;-85
2022/07/31 12:41:27;;;;;;;4.00;1.80;;;28.60;88.40;;;;;;5073824;28;20386;-88
2022/07/31 12:43:53;;;;;;;4.38;1.75;;;28.80;87.80;;;;;;5054984;28;20477;-88
2022/07/31 12:46:22;;;;;;;3.20;2.03;;;28.80;85.80;;;;;;5054154;28;20390;-88
2022/07/31 12:48:48;;;;;;;3.00;1.90;;;28.70;84.20;;;;;;5054581;28;20465;-87
2022/07/31 12:51:16;;;;;;;2.33;1.77;;;28.50;85.40;;;;;;5072890;28;20375;-87
2022/07/31 12:53:42;;;;;;;2.67;1.73;;;28.50;86.90;;;;;;5053448;28;20771;-87